sensor_id;sensor_type;location;lat;lon;timestamp;temperature;humidity
16267;DHT22;8241;48.786;9.250;2023-05-02T00:01:03;10.70;99.90
16267;DHT22;8241;48.786;9.250;2023-05-02T00:03:30;10.60;99.90
16267;DHT22;8241;48.786;9.250;2023-05-02T00:05:59;10.50;99.90
16267;DHT22;8241;48.786;9.250;2023-05-02T00:08:26;10.40;99.90
16267;DHT22;8241;48.786;9.250;2023-05-02T00:10:53;10.50;99.90
16267;DHT22;8241;48.786;9.250;2023-05-02T00:13:20;10.50;99.90
16267;DHT22;8241;48.786;9.250;2023-05-02T00:15:47;10.50;99.90
16267;DHT22;8241;48.786;9.250;2023-05-02T00:18:15;10.40;99.90
16267;DHT22;8241;48.786;9.250;2023-05-02T00:20:43;10.30;99.90
16267;DHT22;8241;48.786;9.250;2023-05-02T00:23:11;10.40;99.90
16267;DHT22;8241;48.786;9.250;2023-05-02T00:25:43;10.20;99.90
16267;DHT22;8241;48.786;9.250;2023-05-02T00:28:14;10.20;99.90
16267;DHT22;8241;48.786;9.250;2023-05-02T00:30:43;10.20;99.90
16267;DHT22;8241;48.786;9.250;2023-05-02T00:33:10;10.20;99.90
16267;DHT22;8241;48.786;9.250;2023-05-02T00:35:40;10.10;99.90
16267;DHT22;8241;48.786;9.250;2023-05-02T00:38:07;10.10;99.90
16267;DHT22;8241;48.786;9.250;2023-05-02T00:40:48;10.20;99.90
16267;DHT22;8241;48.786;9.250;2023-05-02T00:43:16;10.20;99.90
16267;DHT22;8241;48.786;9.250;2023-05-02T00:45:43;10.10;99.90
16267;DHT22;8241;48.786;9.250;2023-05-02T00:48:11;10.10;99.90
16267;DHT22;8241;48.786;9.250;2023-05-02T00:50:41;10.10;99.90
16267;DHT22;8241;48.786;9.250;2023-05-02T00:53:09;10.10;99.90
16267;DHT22;8241;48.786;9.250;2023-05-02T00:55:36;10.00;99.90
16267;DHT22;8241;48.786;9.250;2023-05-02T00:58:05;10.00;99.90
16267;DHT22;8241;48.786;9.250;2023-05-02T01:00:41;10.00;99.90
16267;DHT22;8241;48.786;9.250;2023-05-02T01:03:16;10.10;99.90
16267;DHT22;8241;48.786;9.250;2023-05-02T01:05:51;10.10;99.90
16267;DHT22;8241;48.786;9.250;2023-05-02T01:08:28;10.00;99.90
16267;DHT22;8241;48.786;9.250;2023-05-02T01:11:04;10.00;99.90
16267;DHT22;8241;48.786;9.250;2023-05-02T01:13:33;10.00;99.90
16267;DHT22;8241;48.786;9.250;2023-05-02T01:16:02;10.00;99.90
16267;DHT22;8241;48.786;9.250;2023-05-02T01:18:32;10.00;99.90
16267;DHT22;8241;48.786;9.250;2023-05-02T01:21:05;10.00;99.90
16267;DHT22;8241;48.786;9.250;2023-05-02T01:23:40;9.90;99.90
16267;DHT22;8241;48.786;9.250;2023-05-02T01:26:26;10.00;99.90
16267;DHT22;8241;48.786;9.250;2023-05-02T01:28:58;9.90;99.90
16267;DHT22;8241;48.786;9.250;2023-05-02T01:31:28;9.80;99.90
16267;DHT22;8241;48.786;9.250;2023-05-02T01:33:55;9.70;99.90
16267;DHT22;8241;48.786;9.250;2023-05-02T01:36:27;9.70;99.90
16267;DHT22;8241;48.786;9.250;2023-05-02T01:38:56;9.80;99.90
16267;DHT22;8241;48.786;9.250;2023-05-02T01:41:26;9.80;99.90
16267;DHT22;8241;48.786;9.250;2023-05-02T01:43:56;9.90;99.90
16267;DHT22;8241;48.786;9.250;2023-05-02T01:46:30;9.80;99.90
16267;DHT22;8241;48.786;9.250;2023-05-02T01:49:01;9.90;99.90
16267;DHT22;8241;48.786;9.250;2023-05-02T01:51:31;9.80;99.90
16267;DHT22;8241;48.786;9.250;2023-05-02T01:54:01;9.80;99.90
16267;DHT22;8241;48.786;9.250;2023-05-02T01:56:32;9.70;99.90
16267;DHT22;8241;48.786;9.250;2023-05-02T02:01:29;9.80;99.90
16267;DHT22;8241;48.786;9.250;2023-05-02T02:03:57;9.90;99.90
16267;DHT22;8241;48.786;9.250;2023-05-02T02:06:25;9.70;99.90
16267;DHT22;8241;48.786;9.250;2023-05-02T02:08:53;9.70;99.90
16267;DHT22;8241;48.786;9.250;2023-05-02T02:11:28;9.70;99.90
16267;DHT22;8241;48.786;9.250;2023-05-02T02:14:05;9.70;99.90
16267;DHT22;8241;48.786;9.250;2023-05-02T02:16:37;9.70;99.90
16267;DHT22;8241;48.786;9.250;2023-05-02T02:19:06;9.70;99.90
16267;DHT22;8241;48.786;9.250;2023-05-02T02:21:35;9.60;99.90
16267;DHT22;8241;48.786;9.250;2023-05-02T02:24:06;9.70;99.90
16267;DHT22;8241;48.786;9.250;2023-05-02T02:26:33;9.60;99.90
16267;DHT22;8241;48.786;9.250;2023-05-02T02:29:03;9.60;99.90
16267;DHT22;8241;48.786;9.250;2023-05-02T02:31:30;9.60;99.90
16267;DHT22;8241;48.786;9.250;2023-05-02T02:33:59;9.60;99.90
16267;DHT22;8241;48.786;9.250;2023-05-02T02:36:32;9.50;99.90
16267;DHT22;8241;48.786;9.250;2023-05-02T02:39:10;9.30;99.90
16267;DHT22;8241;48.786;9.250;2023-05-02T02:41:42;9.30;99.90
16267;DHT22;8241;48.786;9.250;2023-05-02T02:44:21;9.20;99.90
16267;DHT22;8241;48.786;9.250;2023-05-02T02:46:59;9.20;99.90
16267;DHT22;8241;48.786;9.250;2023-05-02T02:49:48;9.20;99.90
16267;DHT22;8241;48.786;9.250;2023-05-02T02:52:21;9.20;99.90
16267;DHT22;8241;48.786;9.250;2023-05-02T02:54:53;9.20;99.90
16267;DHT22;8241;48.786;9.250;2023-05-02T02:57:27;9.20;99.90
16267;DHT22;8241;48.786;9.250;2023-05-02T03:00:00;9.20;99.90
16267;DHT22;8241;48.786;9.250;2023-05-02T03:02:31;9.20;99.90
16267;DHT22;8241;48.786;9.250;2023-05-02T03:05:01;9.30;99.90
16267;DHT22;8241;48.786;9.250;2023-05-02T03:07:30;9.30;99.90
16267;DHT22;8241;48.786;9.250;2023-05-02T03:10:02;9.30;99.90
16267;DHT22;8241;48.786;9.250;2023-05-02T03:12:30;9.20;99.90
16267;DHT22;8241;48.786;9.250;2023-05-02T03:15:06;9.30;99.90
16267;DHT22;8241;48.786;9.250;2023-05-02T03:17:38;9.10;99.90
16267;DHT22;8241;48.786;9.250;2023-05-02T03:20:07;9.20;99.90
16267;DHT22;8241;48.786;9.250;2023-05-02T03:22:34;9.20;99.90
16267;DHT22;8241;48.786;9.250;2023-05-02T03:25:01;9.20;99.90
16267;DHT22;8241;48.786;9.250;2023-05-02T03:27:28;9.10;99.90
16267;DHT22;8241;48.786;9.250;2023-05-02T03:29:57;9.10;99.90
16267;DHT22;8241;48.786;9.250;2023-05-02T03:32:25;9.10;99.90
16267;DHT22;8241;48.786;9.250;2023-05-02T03:34:52;9.20;99.90
16267;DHT22;8241;48.786;9.250;2023-05-02T03:37:26;9.30;99.90
16267;DHT22;8241;48.786;9.250;2023-05-02T03:39:55;9.40;99.90
16267;DHT22;8241;48.786;9.250;2023-05-02T03:42:23;9.50;99.90
16267;DHT22;8241;48.786;9.250;2023-05-02T03:44:51;9.40;99.90
16267;DHT22;8241;48.786;9.250;2023-05-02T03:47:20;9.30;99.90
16267;DHT22;8241;48.786;9.250;2023-05-02T03:49:47;9.40;99.90
16267;DHT22;8241;48.786;9.250;2023-05-02T03:52:15;9.40;99.90
16267;DHT22;8241;48.786;9.250;2023-05-02T03:54:44;9.40;99.90
16267;DHT22;8241;48.786;9.250;2023-05-02T03:57:11;9.30;99.90
16267;DHT22;8241;48.786;9.250;2023-05-02T03:59:39;9.30;99.90
16267;DHT22;8241;48.786;9.250;2023-05-02T04:02:17;9.40;99.90
16267;DHT22;8241;48.786;9.250;2023-05-02T04:04:47;9.40;99.90
16267;DHT22;8241;48.786;9.250;2023-05-02T04:07:18;9.40;99.90
16267;DHT22;8241;48.786;9.250;2023-05-02T04:09:50;9.50;99.90
16267;DHT22;8241;48.786;9.250;2023-05-02T04:12:17;9.50;99.90
16267;DHT22;8241;48.786;9.250;2023-05-02T04:14:47;9.50;99.90
16267;DHT22;8241;48.786;9.250;2023-05-02T04:17:15;9.50;99.90
16267;DHT22;8241;48.786;9.250;2023-05-02T04:19:45;9.50;99.90
16267;DHT22;8241;48.786;9.250;2023-05-02T04:22:13;9.40;99.90
16267;DHT22;8241;48.786;9.250;2023-05-02T04:24:45;9.40;99.90
16267;DHT22;8241;48.786;9.250;2023-05-02T04:27:15;9.40;99.90
16267;DHT22;8241;48.786;9.250;2023-05-02T04:29:43;9.50;99.90
16267;DHT22;8241;48.786;9.250;2023-05-02T04:32:11;9.50;99.90
16267;DHT22;8241;48.786;9.250;2023-05-02T04:34:43;9.50;99.90
16267;DHT22;8241;48.786;9.250;2023-05-02T04:37:10;9.50;99.90
16267;DHT22;8241;48.786;9.250;2023-05-02T04:39:40;9.50;99.90
16267;DHT22;8241;48.786;9.250;2023-05-02T04:42:14;9.50;99.90
16267;DHT22;8241;48.786;9.250;2023-05-02T04:44:49;9.60;99.90
16267;DHT22;8241;48.786;9.250;2023-05-02T04:47:16;9.70;99.90
16267;DHT22;8241;48.786;9.250;2023-05-02T04:49:44;10.10;99.90
16267;DHT22;8241;48.786;9.250;2023-05-02T04:52:11;9.70;99.90
16267;DHT22;8241;48.786;9.250;2023-05-02T04:54:39;9.60;99.90
16267;DHT22;8241;48.786;9.250;2023-05-02T04:57:06;9.70;99.90
16267;DHT22;8241;48.786;9.250;2023-05-02T04:59:45;9.70;99.90
16267;DHT22;8241;48.786;9.250;2023-05-02T05:02:12;9.70;99.90
16267;DHT22;8241;48.786;9.250;2023-05-02T05:04:39;9.70;99.90
16267;DHT22;8241;48.786;9.250;2023-05-02T05:07:07;9.90;99.90
16267;DHT22;8241;48.786;9.250;2023-05-02T05:09:34;9.80;99.90
16267;DHT22;8241;48.786;9.250;2023-05-02T05:12:02;9.70;99.90
16267;DHT22;8241;48.786;9.250;2023-05-02T05:14:32;9.80;99.90
16267;DHT22;8241;48.786;9.250;2023-05-02T05:17:01;9.70;99.90
16267;DHT22;8241;48.786;9.250;2023-05-02T05:19:28;9.70;99.90
16267;DHT22;8241;48.786;9.250;2023-05-02T05:22:04;9.70;99.90
16267;DHT22;8241;48.786;9.250;2023-05-02T05:24:31;9.80;99.90
16267;DHT22;8241;48.786;9.250;2023-05-02T05:26:59;9.80;99.90
16267;DHT22;8241;48.786;9.250;2023-05-02T05:29:26;9.80;99.90
16267;DHT22;8241;48.786;9.250;2023-05-02T05:31:53;9.90;99.90
16267;DHT22;8241;48.786;9.250;2023-05-02T05:34:22;10.00;99.90
16267;DHT22;8241;48.786;9.250;2023-05-02T05:36:51;10.00;99.90
16267;DHT22;8241;48.786;9.250;2023-05-02T05:39:19;10.10;99.90
16267;DHT22;8241;48.786;9.250;2023-05-02T05:41:53;10.20;99.90
16267;DHT22;8241;48.786;9.250;2023-05-02T05:44:22;10.30;99.90
16267;DHT22;8241;48.786;9.250;2023-05-02T05:46:50;10.40;99.90
16267;DHT22;8241;48.786;9.250;2023-05-02T05:49:20;10.40;99.90
16267;DHT22;8241;48.786;9.250;2023-05-02T05:51:52;10.50;99.90
16267;DHT22;8241;48.786;9.250;2023-05-02T05:54:19;10.60;99.90
16267;DHT22;8241;48.786;9.250;2023-05-02T05:56:46;10.60;99.90
16267;DHT22;8241;48.786;9.250;2023-05-02T05:59:18;10.60;99.90
16267;DHT22;8241;48.786;9.250;2023-05-02T06:01:47;10.70;99.90
16267;DHT22;8241;48.786;9.250;2023-05-02T06:04:16;10.80;99.90
16267;DHT22;8241;48.786;9.250;2023-05-02T06:06:48;10.90;99.90
16267;DHT22;8241;48.786;9.250;2023-05-02T06:09:17;10.90;99.90
16267;DHT22;8241;48.786;9.250;2023-05-02T06:11:44;11.00;99.90
16267;DHT22;8241;48.786;9.250;2023-05-02T06:14:11;11.10;99.90
16267;DHT22;8241;48.786;9.250;2023-05-02T06:16:39;11.20;99.90
16267;DHT22;8241;48.786;9.250;2023-05-02T06:19:08;11.30;99.90
16267;DHT22;8241;48.786;9.250;2023-05-02T06:21:35;11.50;99.90
16267;DHT22;8241;48.786;9.250;2023-05-02T06:24:03;11.60;99.90
16267;DHT22;8241;48.786;9.250;2023-05-02T06:26:31;11.60;99.90
16267;DHT22;8241;48.786;9.250;2023-05-02T06:28:59;11.60;99.90
16267;DHT22;8241;48.786;9.250;2023-05-02T06:31:27;11.60;99.90
16267;DHT22;8241;48.786;9.250;2023-05-02T06:33:54;11.50;99.90
16267;DHT22;8241;48.786;9.250;2023-05-02T06:36:21;11.70;99.90
16267;DHT22;8241;48.786;9.250;2023-05-02T06:38:48;11.80;99.90
16267;DHT22;8241;48.786;9.250;2023-05-02T06:41:18;12.00;99.90
16267;DHT22;8241;48.786;9.250;2023-05-02T06:43:48;12.10;99.90
16267;DHT22;8241;48.786;9.250;2023-05-02T06:46:20;12.20;99.90
16267;DHT22;8241;48.786;9.250;2023-05-02T06:48:47;12.50;99.90
16267;DHT22;8241;48.786;9.250;2023-05-02T06:51:14;12.60;99.90
16267;DHT22;8241;48.786;9.250;2023-05-02T06:53:42;12.70;99.90
16267;DHT22;8241;48.786;9.250;2023-05-02T06:56:09;12.70;99.90
16267;DHT22;8241;48.786;9.250;2023-05-02T06:58:36;12.70;99.90
16267;DHT22;8241;48.786;9.250;2023-05-02T07:01:04;12.80;99.90
16267;DHT22;8241;48.786;9.250;2023-05-02T07:03:31;12.70;99.90
16267;DHT22;8241;48.786;9.250;2023-05-02T07:05:59;12.70;99.90
16267;DHT22;8241;48.786;9.250;2023-05-02T07:08:26;12.70;99.90
16267;DHT22;8241;48.786;9.250;2023-05-02T07:10:53;12.70;99.90
16267;DHT22;8241;48.786;9.250;2023-05-02T07:13:20;12.70;99.90
16267;DHT22;8241;48.786;9.250;2023-05-02T07:15:47;12.70;99.90
16267;DHT22;8241;48.786;9.250;2023-05-02T07:18:16;12.70;99.90
16267;DHT22;8241;48.786;9.250;2023-05-02T07:20:43;12.80;99.90
16267;DHT22;8241;48.786;9.250;2023-05-02T07:23:10;12.70;99.90
16267;DHT22;8241;48.786;9.250;2023-05-02T07:25:37;12.70;99.90
16267;DHT22;8241;48.786;9.250;2023-05-02T07:28:04;12.70;99.90
16267;DHT22;8241;48.786;9.250;2023-05-02T07:30:31;12.70;99.90
16267;DHT22;8241;48.786;9.250;2023-05-02T07:32:59;12.60;99.90
16267;DHT22;8241;48.786;9.250;2023-05-02T07:35:27;12.70;99.90
16267;DHT22;8241;48.786;9.250;2023-05-02T07:37:54;12.80;99.90
16267;DHT22;8241;48.786;9.250;2023-05-02T07:40:21;12.70;99.90
16267;DHT22;8241;48.786;9.250;2023-05-02T07:42:48;12.70;99.90
16267;DHT22;8241;48.786;9.250;2023-05-02T07:45:16;12.80;99.90
16267;DHT22;8241;48.786;9.250;2023-05-02T07:47:44;12.80;99.90
16267;DHT22;8241;48.786;9.250;2023-05-02T07:50:11;12.80;99.90
16267;DHT22;8241;48.786;9.250;2023-05-02T07:52:39;12.80;99.90
16267;DHT22;8241;48.786;9.250;2023-05-02T07:55:07;13.00;99.90
16267;DHT22;8241;48.786;9.250;2023-05-02T07:57:34;13.00;99.90
16267;DHT22;8241;48.786;9.250;2023-05-02T08:00:02;13.00;99.90
16267;DHT22;8241;48.786;9.250;2023-05-02T08:02:39;13.10;99.90
16267;DHT22;8241;48.786;9.250;2023-05-02T08:05:07;13.20;99.90
16267;DHT22;8241;48.786;9.250;2023-05-02T08:07:34;13.20;99.90
16267;DHT22;8241;48.786;9.250;2023-05-02T08:10:03;13.20;99.90
16267;DHT22;8241;48.786;9.250;2023-05-02T08:12:30;13.30;99.90
16267;DHT22;8241;48.786;9.250;2023-05-02T08:14:57;13.30;99.90
16267;DHT22;8241;48.786;9.250;2023-05-02T08:17:24;13.40;99.90
16267;DHT22;8241;48.786;9.250;2023-05-02T08:19:53;13.50;99.90
16267;DHT22;8241;48.786;9.250;2023-05-02T08:22:20;13.60;99.90
16267;DHT22;8241;48.786;9.250;2023-05-02T08:24:47;13.60;99.90
16267;DHT22;8241;48.786;9.250;2023-05-02T08:29:43;13.50;99.90
16267;DHT22;8241;48.786;9.250;2023-05-02T08:32:11;13.60;99.90
16267;DHT22;8241;48.786;9.250;2023-05-02T08:34:38;13.70;99.90
16267;DHT22;8241;48.786;9.250;2023-05-02T08:37:07;13.80;99.90
16267;DHT22;8241;48.786;9.250;2023-05-02T08:39:36;13.90;99.90
16267;DHT22;8241;48.786;9.250;2023-05-02T08:42:06;13.90;99.90
16267;DHT22;8241;48.786;9.250;2023-05-02T08:44:34;14.00;99.90
16267;DHT22;8241;48.786;9.250;2023-05-02T08:47:02;14.20;99.90
16267;DHT22;8241;48.786;9.250;2023-05-02T08:49:31;14.20;99.90
16267;DHT22;8241;48.786;9.250;2023-05-02T08:51:59;14.20;99.90
16267;DHT22;8241;48.786;9.250;2023-05-02T08:54:27;14.20;99.90
16267;DHT22;8241;48.786;9.250;2023-05-02T08:56:55;14.30;99.90
16267;DHT22;8241;48.786;9.250;2023-05-02T08:59:25;14.30;99.90
16267;DHT22;8241;48.786;9.250;2023-05-02T09:01:58;14.40;99.90
16267;DHT22;8241;48.786;9.250;2023-05-02T09:04:31;14.50;99.90
16267;DHT22;8241;48.786;9.250;2023-05-02T09:07:00;14.40;99.90
16267;DHT22;8241;48.786;9.250;2023-05-02T09:09:28;14.50;99.90
16267;DHT22;8241;48.786;9.250;2023-05-02T09:11:58;14.60;99.90
16267;DHT22;8241;48.786;9.250;2023-05-02T09:14:25;14.60;99.90
16267;DHT22;8241;48.786;9.250;2023-05-02T09:16:59;14.70;99.90
16267;DHT22;8241;48.786;9.250;2023-05-02T09:19:26;15.10;99.90
16267;DHT22;8241;48.786;9.250;2023-05-02T09:21:59;15.90;99.90
16267;DHT22;8241;48.786;9.250;2023-05-02T09:24:28;16.10;99.90
16267;DHT22;8241;48.786;9.250;2023-05-02T09:26:57;16.40;99.90
16267;DHT22;8241;48.786;9.250;2023-05-02T09:29:26;17.50;98.60
16267;DHT22;8241;48.786;9.250;2023-05-02T09:31:53;17.90;97.80
16267;DHT22;8241;48.786;9.250;2023-05-02T09:34:23;17.70;98.40
16267;DHT22;8241;48.786;9.250;2023-05-02T09:36:50;17.60;98.70
16267;DHT22;8241;48.786;9.250;2023-05-02T09:39:20;17.40;98.60
16267;DHT22;8241;48.786;9.250;2023-05-02T09:41:48;17.30;99.30
16267;DHT22;8241;48.786;9.250;2023-05-02T09:46:47;17.40;99.90
16267;DHT22;8241;48.786;9.250;2023-05-02T09:49:15;18.10;97.80
16267;DHT22;8241;48.786;9.250;2023-05-02T09:51:46;18.40;96.70
16267;DHT22;8241;48.786;9.250;2023-05-02T09:54:33;19.10;96.40
16267;DHT22;8241;48.786;9.250;2023-05-02T09:57:05;19.20;96.10
16267;DHT22;8241;48.786;9.250;2023-05-02T09:59:32;21.20;94.00
16267;DHT22;8241;48.786;9.250;2023-05-02T10:02:01;22.40;91.90
16267;DHT22;8241;48.786;9.250;2023-05-02T10:04:30;22.20;91.30
16267;DHT22;8241;48.786;9.250;2023-05-02T10:06:59;23.00;90.00
16267;DHT22;8241;48.786;9.250;2023-05-02T10:09:28;23.90;87.50
16267;DHT22;8241;48.786;9.250;2023-05-02T10:12:01;24.50;85.80
16267;DHT22;8241;48.786;9.250;2023-05-02T10:14:31;24.80;84.60
16267;DHT22;8241;48.786;9.250;2023-05-02T10:17:04;23.30;87.00
16267;DHT22;8241;48.786;9.250;2023-05-02T10:19:40;21.70;89.80
16267;DHT22;8241;48.786;9.250;2023-05-02T10:22:13;20.20;91.00
16267;DHT22;8241;48.786;9.250;2023-05-02T10:24:40;19.20;92.80
16267;DHT22;8241;48.786;9.250;2023-05-02T10:27:08;19.20;93.90
16267;DHT22;8241;48.786;9.250;2023-05-02T10:29:35;19.20;94.20
16267;DHT22;8241;48.786;9.250;2023-05-02T10:32:04;19.20;94.50
16267;DHT22;8241;48.786;9.250;2023-05-02T10:34:32;19.10;94.10
16267;DHT22;8241;48.786;9.250;2023-05-02T10:36:59;19.10;93.70
16267;DHT22;8241;48.786;9.250;2023-05-02T10:39:28;18.90;93.80
16267;DHT22;8241;48.786;9.250;2023-05-02T10:41:57;18.50;94.00
16267;DHT22;8241;48.786;9.250;2023-05-02T10:44:32;18.40;95.10
16267;DHT22;8241;48.786;9.250;2023-05-02T10:47:00;18.30;95.70
16267;DHT22;8241;48.786;9.250;2023-05-02T10:49:27;18.30;95.50
16267;DHT22;8241;48.786;9.250;2023-05-02T10:51:54;18.40;95.60
16267;DHT22;8241;48.786;9.250;2023-05-02T10:54:22;18.70;96.20
16267;DHT22;8241;48.786;9.250;2023-05-02T10:57:05;19.00;95.60
16267;DHT22;8241;48.786;9.250;2023-05-02T10:59:34;19.30;95.30
16267;DHT22;8241;48.786;9.250;2023-05-02T11:02:02;19.10;93.20
16267;DHT22;8241;48.786;9.250;2023-05-02T11:04:58;19.20;92.90
16267;DHT22;8241;48.786;9.250;2023-05-02T11:07:26;19.30;92.30
16267;DHT22;8241;48.786;9.250;2023-05-02T11:09:52;19.20;93.30
16267;DHT22;8241;48.786;9.250;2023-05-02T11:12:45;19.40;93.20
16267;DHT22;8241;48.786;9.250;2023-05-02T11:15:13;19.50;92.30
16267;DHT22;8241;48.786;9.250;2023-05-02T11:17:59;19.50;92.30
16267;DHT22;8241;48.786;9.250;2023-05-02T11:20:27;19.30;92.60
16267;DHT22;8241;48.786;9.250;2023-05-02T11:23:19;19.30;92.90
16267;DHT22;8241;48.786;9.250;2023-05-02T11:25:52;19.10;91.00
16267;DHT22;8241;48.786;9.250;2023-05-02T11:28:43;19.10;91.20
16267;DHT22;8241;48.786;9.250;2023-05-02T11:34:40;19.40;91.30
16267;DHT22;8241;48.786;9.250;2023-05-02T11:37:12;19.50;91.50
16267;DHT22;8241;48.786;9.250;2023-05-02T11:39:40;19.70;91.20
16267;DHT22;8241;48.786;9.250;2023-05-02T11:42:07;19.70;90.90
16267;DHT22;8241;48.786;9.250;2023-05-02T11:44:57;19.80;90.60
16267;DHT22;8241;48.786;9.250;2023-05-02T11:47:25;20.00;91.20
16267;DHT22;8241;48.786;9.250;2023-05-02T11:49:54;20.20;91.00
16267;DHT22;8241;48.786;9.250;2023-05-02T11:52:21;20.60;90.30
16267;DHT22;8241;48.786;9.250;2023-05-02T11:54:49;21.00;90.40
16267;DHT22;8241;48.786;9.250;2023-05-02T11:57:16;21.40;88.00
16267;DHT22;8241;48.786;9.250;2023-05-02T11:59:50;21.00;87.90
16267;DHT22;8241;48.786;9.250;2023-05-02T12:02:19;21.60;87.60
16267;DHT22;8241;48.786;9.250;2023-05-02T12:04:46;22.50;82.30
16267;DHT22;8241;48.786;9.250;2023-05-02T12:07:13;23.10;82.00
16267;DHT22;8241;48.786;9.250;2023-05-02T12:09:50;23.50;80.50
16267;DHT22;8241;48.786;9.250;2023-05-02T12:12:19;24.20;79.10
16267;DHT22;8241;48.786;9.250;2023-05-02T12:14:46;24.60;79.50
16267;DHT22;8241;48.786;9.250;2023-05-02T12:17:14;24.90;77.70
16267;DHT22;8241;48.786;9.250;2023-05-02T12:19:43;25.00;76.10
16267;DHT22;8241;48.786;9.250;2023-05-02T12:22:11;25.00;76.40
16267;DHT22;8241;48.786;9.250;2023-05-02T12:24:40;25.30;75.40
16267;DHT22;8241;48.786;9.250;2023-05-02T12:27:09;25.40;78.50
16267;DHT22;8241;48.786;9.250;2023-05-02T12:29:38;25.20;76.10
16267;DHT22;8241;48.786;9.250;2023-05-02T12:34:33;23.00;90.50
16267;DHT22;8241;48.786;9.250;2023-05-02T12:37:03;21.70;83.10
16267;DHT22;8241;48.786;9.250;2023-05-02T12:39:34;20.70;84.10
16267;DHT22;8241;48.786;9.250;2023-05-02T12:42:08;20.30;86.80
16267;DHT22;8241;48.786;9.250;2023-05-02T12:44:35;19.70;89.20
16267;DHT22;8241;48.786;9.250;2023-05-02T12:47:05;19.30;90.60
16267;DHT22;8241;48.786;9.250;2023-05-02T12:49:32;19.40;91.10
16267;DHT22;8241;48.786;9.250;2023-05-02T12:51:59;19.60;90.60
16267;DHT22;8241;48.786;9.250;2023-05-02T12:54:27;20.00;90.60
16267;DHT22;8241;48.786;9.250;2023-05-02T12:56:54;20.70;90.10
16267;DHT22;8241;48.786;9.250;2023-05-02T12:59:26;21.00;89.20
16267;DHT22;8241;48.786;9.250;2023-05-02T13:01:53;21.50;88.00
16267;DHT22;8241;48.786;9.250;2023-05-02T13:04:20;21.60;87.60
16267;DHT22;8241;48.786;9.250;2023-05-02T13:06:47;20.90;86.20
16267;DHT22;8241;48.786;9.250;2023-05-02T13:09:14;20.20;88.80
16267;DHT22;8241;48.786;9.250;2023-05-02T13:11:44;19.90;90.50
16267;DHT22;8241;48.786;9.250;2023-05-02T13:14:11;19.70;90.00
16267;DHT22;8241;48.786;9.250;2023-05-02T13:16:38;19.50;90.30
16267;DHT22;8241;48.786;9.250;2023-05-02T13:19:06;19.30;90.70
16267;DHT22;8241;48.786;9.250;2023-05-02T13:21:34;19.20;91.50
16267;DHT22;8241;48.786;9.250;2023-05-02T13:24:04;19.10;91.40
16267;DHT22;8241;48.786;9.250;2023-05-02T13:26:31;18.80;91.80
16267;DHT22;8241;48.786;9.250;2023-05-02T13:29:00;18.70;92.00
16267;DHT22;8241;48.786;9.250;2023-05-02T13:31:27;18.90;92.20
16267;DHT22;8241;48.786;9.250;2023-05-02T13:33:53;19.00;92.50
16267;DHT22;8241;48.786;9.250;2023-05-02T13:36:20;19.00;92.30
16267;DHT22;8241;48.786;9.250;2023-05-02T13:38:49;19.20;92.20
16267;DHT22;8241;48.786;9.250;2023-05-02T13:41:16;19.30;91.90
16267;DHT22;8241;48.786;9.250;2023-05-02T13:43:43;19.30;90.70
16267;DHT22;8241;48.786;9.250;2023-05-02T13:46:12;19.20;90.50
16267;DHT22;8241;48.786;9.250;2023-05-02T13:48:40;19.20;91.00
16267;DHT22;8241;48.786;9.250;2023-05-02T13:51:09;19.40;90.70
16267;DHT22;8241;48.786;9.250;2023-05-02T13:53:38;19.30;90.40
16267;DHT22;8241;48.786;9.250;2023-05-02T13:56:06;19.30;90.90
16267;DHT22;8241;48.786;9.250;2023-05-02T13:58:33;19.30;90.10
16267;DHT22;8241;48.786;9.250;2023-05-02T14:01:00;19.30;88.10
16267;DHT22;8241;48.786;9.250;2023-05-02T14:03:28;19.40;89.50
16267;DHT22;8241;48.786;9.250;2023-05-02T14:05:55;19.50;90.20
16267;DHT22;8241;48.786;9.250;2023-05-02T14:08:24;19.50;90.80
16267;DHT22;8241;48.786;9.250;2023-05-02T14:10:52;19.70;91.20
16267;DHT22;8241;48.786;9.250;2023-05-02T14:13:19;19.80;90.50
16267;DHT22;8241;48.786;9.250;2023-05-02T14:15:47;19.90;90.80
16267;DHT22;8241;48.786;9.250;2023-05-02T14:18:14;19.70;90.80
16267;DHT22;8241;48.786;9.250;2023-05-02T14:20:43;19.40;91.10
16267;DHT22;8241;48.786;9.250;2023-05-02T14:23:10;19.20;91.20
16267;DHT22;8241;48.786;9.250;2023-05-02T14:25:37;19.10;91.20
16267;DHT22;8241;48.786;9.250;2023-05-02T14:28:04;19.30;90.90
16267;DHT22;8241;48.786;9.250;2023-05-02T14:30:32;19.40;90.30
16267;DHT22;8241;48.786;9.250;2023-05-02T14:32:59;19.60;90.50
16267;DHT22;8241;48.786;9.250;2023-05-02T14:35:26;19.70;90.50
16267;DHT22;8241;48.786;9.250;2023-05-02T14:37:55;19.70;90.00
16267;DHT22;8241;48.786;9.250;2023-05-02T14:40:22;19.70;89.50
16267;DHT22;8241;48.786;9.250;2023-05-02T14:42:49;19.90;88.80
16267;DHT22;8241;48.786;9.250;2023-05-02T14:45:17;20.00;88.40
16267;DHT22;8241;48.786;9.250;2023-05-02T14:47:44;20.00;88.20
16267;DHT22;8241;48.786;9.250;2023-05-02T14:50:11;19.70;89.00
16267;DHT22;8241;48.786;9.250;2023-05-02T14:52:38;19.60;89.60
16267;DHT22;8241;48.786;9.250;2023-05-02T14:55:08;19.40;90.10
16267;DHT22;8241;48.786;9.250;2023-05-02T14:57:35;19.40;90.10
16267;DHT22;8241;48.786;9.250;2023-05-02T15:00:03;19.30;88.50
16267;DHT22;8241;48.786;9.250;2023-05-02T15:02:32;19.00;88.80
16267;DHT22;8241;48.786;9.250;2023-05-02T15:04:59;18.80;90.00
16267;DHT22;8241;48.786;9.250;2023-05-02T15:07:26;18.60;88.90
16267;DHT22;8241;48.786;9.250;2023-05-02T15:09:53;18.60;89.00
16267;DHT22;8241;48.786;9.250;2023-05-02T15:12:22;18.50;88.90
16267;DHT22;8241;48.786;9.250;2023-05-02T15:14:50;18.50;90.10
16267;DHT22;8241;48.786;9.250;2023-05-02T15:17:17;18.70;89.50
16267;DHT22;8241;48.786;9.250;2023-05-02T15:19:44;18.90;90.00
16267;DHT22;8241;48.786;9.250;2023-05-02T15:22:11;19.20;89.60
16267;DHT22;8241;48.786;9.250;2023-05-02T15:24:40;19.40;87.10
16267;DHT22;8241;48.786;9.250;2023-05-02T15:27:07;19.40;84.60
16267;DHT22;8241;48.786;9.250;2023-05-02T15:29:36;19.60;85.40
16267;DHT22;8241;48.786;9.250;2023-05-02T15:32:03;20.00;83.20
16267;DHT22;8241;48.786;9.250;2023-05-02T15:34:30;20.10;82.00
16267;DHT22;8241;48.786;9.250;2023-05-02T15:36:58;20.30;83.00
16267;DHT22;8241;48.786;9.250;2023-05-02T15:39:26;20.60;83.90
16267;DHT22;8241;48.786;9.250;2023-05-02T15:41:53;20.50;83.80
16267;DHT22;8241;48.786;9.250;2023-05-02T15:44:21;20.20;82.30
16267;DHT22;8241;48.786;9.250;2023-05-02T15:46:50;20.00;83.90
16267;DHT22;8241;48.786;9.250;2023-05-02T15:49:17;20.10;83.00
16267;DHT22;8241;48.786;9.250;2023-05-02T15:51:44;20.10;83.70
16267;DHT22;8241;48.786;9.250;2023-05-02T15:54:11;20.10;82.80
16267;DHT22;8241;48.786;9.250;2023-05-02T15:56:38;20.00;81.60
16267;DHT22;8241;48.786;9.250;2023-05-02T15:59:06;19.90;79.60
16267;DHT22;8241;48.786;9.250;2023-05-02T16:01:33;19.70;81.00
16267;DHT22;8241;48.786;9.250;2023-05-02T16:04:02;19.70;81.20
16267;DHT22;8241;48.786;9.250;2023-05-02T16:06:31;19.60;82.60
16267;DHT22;8241;48.786;9.250;2023-05-02T16:08:59;19.70;80.80
16267;DHT22;8241;48.786;9.250;2023-05-02T16:11:26;19.70;79.70
16267;DHT22;8241;48.786;9.250;2023-05-02T16:13:53;19.80;80.60
16267;DHT22;8241;48.786;9.250;2023-05-02T16:16:20;19.70;80.60